• Join FlightAware (Why Join?)
  • Login
  • US Flag 
05:17PM EDT


 

Airport Tracker/Info


-or-


 

Live Flight TrackerFlight Track Log ✈ FDX1234 ✈ 30-Jul-2013 ✈ KIAD - KMEM

Flight Track Log - Related Links

Times and Time Zones

All times are in EDT time to prevent confusion due to time zone crossing. See the FDX1234 flight status page for this flight to view local times or setup timezone preferences in your user account.

Time Position Orientation Groundspeed Altitude Reporting Facility
EDT Latitude Longitude Course Direction KTS MPH feet Rate Location/Type
10:59PM 38.9320 -77.4600 181° South 163 188 1,000  Level FlightAware
11:00PM 38.9210 -77.4670 206° Southwest 174 200 1,400 1,380 Climbing FlightAware
11:00PM 38.9140 -77.4800 235° Southwest 194 223 1,700 1,740 Climbing FlightAware
11:00PM 38.9020 -77.5080 241° Southwest 222 255 2,300 1,560 Climbing FlightAware
11:01PM 38.8910 -77.5320 240° Southwest 247 284 2,900 2,100 Climbing FlightAware
11:01PM 38.8800 -77.5580 241° Southwest 256 295 3,700 2,640 Climbing FlightAware
11:01PM 38.8770 -77.5650 241° Southwest 258 297 4,000 3,180 Climbing FlightAware
11:01PM 38.8740 -77.5800 256° West 261 300 4,500 2,700 Climbing FlightAware
11:01PM 38.8700 -77.5950 251° West 265 305 4,900 2,700 Climbing FlightAware
11:02PM 38.8600 -77.6330 251° West 274 315 6,100 2,220 Climbing FlightAware
11:02PM 38.8490 -77.6710 250° West 266 306 6,800 1,980 Climbing FlightAware
11:03PM 38.8390 -77.7040 249° West 266 306 7,700 2,160 Climbing FlightAware
11:03PM 38.8320 -77.7380 255° West 279 321 8,400 2,280 Climbing FlightAware
11:03PM 38.8300 -77.7730 266° West 281 323 9,300 2,220 Climbing FlightAware
11:04PM 38.8320 -77.8050 275° West 293 337 9,900 900 Climbing FlightAware
11:04PM 38.8340 -77.8500 273° West 331 381 10,000 720 Climbing FlightAware
11:05PM 38.8380 -77.9160 274° West 362 417 10,600 1,680 Climbing FlightAware
11:05PM 38.8420 -77.9890 274° West 366 421 12,000 2,340 Climbing FlightAware
11:06PM 38.8460 -78.0740 273° West 373 429 13,500 2,280 Climbing FlightAware
11:06PM 38.8510 -78.1480 275° West 381 438 14,600 1,980 Climbing FlightAware
11:07PM 38.8540 -78.2280 273° West 388 447 15,800 1,920 Climbing FlightAware
11:07PM 38.8530 -78.3130 269° West 394 453 17,000 1,860 Climbing FlightAware
11:08PM 38.8530 -78.3890 270° West 402 463 18,000 1,620 Climbing FlightAware
11:09PM 38.8520 -78.4710 269° West 411 473 18,800 1,380 Climbing FlightAware
11:09PM 38.8510 -78.5600 269° West 420 483 19,700 1,560 Climbing FlightAware
11:10PM 38.8490 -78.6480 268° West 427 491 20,700 1,620 Climbing FlightAware
11:10PM 38.8480 -78.7370 269° West 431 496 21,600 1,440 Climbing FlightAware
11:11PM 38.8470 -78.8190 269° West 440 506 22,400 1,260 Climbing FlightAware
11:12PM 38.8450 -78.9190 269° West 448 516 23,100 1,500 Climbing FlightAware
11:12PM 38.8440 -79.0120 269° West 450 518 24,100 1,500 Climbing FlightAware
11:13PM 38.8420 -79.1060 268° West 452 520 24,900 1,620 Climbing FlightAware
11:13PM 38.8390 -79.1990 268° West 448 516 26,000 1,320 Climbing FlightAware
11:14PM 38.8240 -79.2880 258° West 457 526 26,500 1,020 Climbing FlightAware
11:14PM 38.8070 -79.3840 257° West 463 533 27,200 1,080 Climbing FlightAware
11:15PM 38.7900 -79.4780 257° West 466 536 27,800 1,200 Climbing FlightAware
11:16PM 38.7740 -79.5640 257° West 464 534 28,600 1,320 Climbing FlightAware
11:16PM 38.7560 -79.6630 257° West 465 535 29,400 1,080 Climbing FlightAware
11:17PM 38.7390 -79.7570 257° West 468 539 29,900 840 Climbing FlightAware
11:17PM 38.7210 -79.8550 257° West 472 543 30,400 1,200 Climbing FlightAware
11:18PM 38.7040 -79.9490 257° West 466 536 31,300 1,500 Climbing FlightAware
11:19PM 38.6870 -80.0400 257° West 459 528 32,200 1,260 Climbing FlightAware
11:19PM 38.6700 -80.1320 257° West 455 524 32,800 1,260 Climbing FlightAware
11:19PM 38.6590 -80.1860 255° West 448 516 33,400 600 Climbing FlightAware
11:21PM 38.6300 -80.3390 256° West 445 512 33,700 1,080 Climbing FlightAware
11:21PM 38.6740 -80.1080 76° East 438 504 35,400 1,800 Climbing FlightAware
11:22PM 38.5920 -80.5430 257° West 425 489 36,000 480 Climbing FlightAware
11:22PM 38.5750 -80.6310 256° West 426 490 36,000  Level FlightAware
11:23PM 38.5590 -80.7160 256° West 427 491 36,000  Level FlightAware
11:24PM 38.5430 -80.7970 256° West 424 488 36,000  Level FlightAware
11:24PM 38.5260 -80.8850 256° West 425 489 36,000  Level FlightAware
11:25PM 38.5090 -80.9720 256° West 424 488 36,000  Level FlightAware
11:25PM 38.4940 -81.0500 256° West 427 491 36,000  Level FlightAware
11:26PM 38.4760 -81.1380 255° West 427 491 36,000  Level FlightAware
11:27PM 38.4610 -81.2150 256° West 427 491 36,000  Level FlightAware
11:27PM 38.4470 -81.2900 257° West 427 491 36,000  Level FlightAware
11:28PM 38.4320 -81.3670 256° West 427 491 36,000  Level FlightAware
11:28PM 38.4170 -81.4420 256° West 427 491 36,000  Level FlightAware
11:29PM 38.3870 -81.5880 255° West 430 495 36,000  Level FlightAware
11:30PM 38.3680 -81.6780 255° West 431 496 36,000  Level FlightAware
11:30PM 38.3540 -81.7500 256° West 431 496 36,000  Level FlightAware
11:31PM 38.3330 -81.8290 251° West 433 498 36,000  Level FlightAware
11:31PM 38.3060 -81.9280 251° West 434 499 36,000  Level FlightAware
11:32PM 38.2813 -82.0146 250° West 435 501 36,000  Level FlightAware ADS-B
11:32PM 38.2598 -82.0916 250° West 434 499 36,000  Level FlightAware ADS-B
11:33PM 38.2393 -82.1633 250° West 433 498 36,000  Level FlightAware ADS-B
11:33PM 38.2190 -82.2349 250° West 432 497 36,000  Level FlightAware ADS-B
11:34PM 38.1880 -82.3450 250° West 431 496 36,000  Level FlightAware
11:34PM 38.1784 -82.3781 250° West 432 497 36,000 -120 Level FlightAware ADS-B
11:35PM 38.1390 -82.5180 250° West 429 494 35,900  Descending FlightAware
11:36PM 38.1180 -82.5890 249° West 432 497 36,000 60 Climbing FlightAware
11:37PM 38.0930 -82.6780 250° West 435 501 36,000  Level FlightAware
11:37PM 38.0670 -82.7670 250° West 434 499 36,000  Level FlightAware
11:38PM 38.0430 -82.8500 250° West 433 498 36,000  Level FlightAware
11:38PM 38.0160 -82.9410 249° West 434 499 36,000  Level FlightAware
11:39PM 37.9930 -83.0220 250° West 432 497 36,000  Level FlightAware
11:39PM 37.9730 -83.0880 249° West 433 498 36,000  Level FlightAware
11:40PM 37.9410 -83.1980 250° West 433 498 36,000  Level FlightAware
11:41PM 37.9150 -83.2880 250° West 433 498 36,000  Level FlightAware
11:41PM 37.9000 -83.3377 249° West 434 499 36,000  Level FlightAware ADS-B
11:42PM 37.8782 -83.4114 249° West 434 499 36,000  Level FlightAware ADS-B
11:42PM 37.8564 -83.4830 249° West 436 502 36,000  Level FlightAware ADS-B
11:43PM 37.8323 -83.5640 249° West 436 502 36,000  Level FlightAware ADS-B
11:44PM 37.7890 -83.7100 249° West 437 503 36,000  Level FlightAware
11:44PM 37.7650 -83.7910 249° West 437 503 36,000  Level FlightAware
11:45PM 37.7410 -83.8720 249° West 438 504 36,000  Level FlightAware
11:46PM 37.7130 -83.9630 249° West 438 504 36,000  Level FlightAware
11:46PM 37.6870 -84.0490 249° West 438 504 36,000  Level FlightAware
11:47PM 37.6640 -84.1260 249° West 439 505 36,000  Level FlightAware
11:47PM 37.6380 -84.2120 249° West 440 506 36,000  Level FlightAware
11:48PM 37.6110 -84.2980 248° West 440 506 36,000  Level FlightAware
11:48PM 37.5840 -84.3870 249° West 441 507 36,000  Level FlightAware
11:49PM 37.5610 -84.4590 248° West 442 509 36,000  Level FlightAware
11:50PM 37.5330 -84.5520 249° West 442 509 36,000  Level FlightAware
11:50PM 37.5090 -84.6290 249° West 441 507 36,000  Level FlightAware
11:51PM 37.4876 -84.6985 249° West 440 506 36,000  Level FlightAware ADS-B
11:51PM 37.4654 -84.7698 249° West 439 505 36,000  Level FlightAware ADS-B
11:52PM 37.4411 -84.8479 249° West 437 503 36,000  Level FlightAware ADS-B
11:52PM 37.4187 -84.9186 248° West 433 498 36,000  Level FlightAware ADS-B
11:53PM 37.3968 -84.9887 249° West 432 497 36,000 -120 Level FlightAware ADS-B
11:53PM 37.3748 -85.0587 248° West 431 496 35,900 -120 Descending FlightAware ADS-B
11:54PM 37.3528 -85.1283 248° West 430 495 35,900  Level FlightAware ADS-B
11:54PM 37.3304 -85.2003 249° West 430 495 35,900 60 Level FlightAware ADS-B
11:55PM 37.3075 -85.2721 248° West 432 497 36,000 60 Climbing FlightAware ADS-B
11:55PM 37.2850 -85.3419 248° West 431 496 36,000  Level FlightAware ADS-B
11:56PM 37.2622 -85.4140 248° West 432 497 36,000  Level FlightAware ADS-B
11:56PM 37.2398 -85.4835 248° West 431 496 36,000  Level FlightAware ADS-B
11:57PM 37.2175 -85.5556 249° West 431 496 36,000  Level FlightAware ADS-B
11:57PM 37.1954 -85.6255 248° West 432 497 36,000  Level FlightAware ADS-B
11:58PM 37.1719 -85.6974 248° West 433 498 36,000  Level FlightAware ADS-B
11:58PM 37.1420 -85.7910 248° West 433 498 36,000  Level FlightAware
11:59PM 37.1200 -85.8600 248° West 434 499 36,000  Level FlightAware
12:00AM 37.0940 -85.9390 248° West 434 499 36,000  Level FlightAware
12:00AM 37.0560 -86.0540 248° West 438 504 36,000  Level FlightAware
12:01AM 37.0320 -86.1260 247° West 440 506 36,000  Level FlightAware
12:02AM 37.0008 -86.2255 249° West 442 509 36,000  Level FlightAware ADS-B
12:02AM 36.9769 -86.2968 247° West 444 511 36,000  Level FlightAware ADS-B
12:03AM 36.9530 -86.3703 248° West 446 513 36,000  Level FlightAware ADS-B
12:03AM 36.9305 -86.4371 247° West 447 514 36,000  Level FlightAware ADS-B
12:04AM 36.9006 -86.5081 242° Southwest 450 518 36,000  Level FlightAware ADS-B
12:04AM 36.8657 -86.5876 241° Southwest 449 517 36,000  Level FlightAware ADS-B
12:05AM 36.8348 -86.6581 241° Southwest 449 517 36,000  Level FlightAware ADS-B
12:05AM 36.8028 -86.7306 241° Southwest 448 516 36,000  Level FlightAware ADS-B
12:06AM 36.7721 -86.7985 241° Southwest 448 516 36,000 -300 Level FlightAware ADS-B
12:06AM 36.7412 -86.8680 241° Southwest 440 506 35,700 -660 Descending FlightAware ADS-B
12:07AM 36.7100 -86.9390 241° Southwest 442 509 35,300 -720 Descending FlightAware
12:07AM 36.6740 -87.0190 241° Southwest 442 509 34,900 -720 Descending FlightAware
12:08AM 36.6380 -87.1000 241° Southwest 444 511 34,500 -720 Descending FlightAware
12:08AM 36.6050 -87.1750 241° Southwest 441 507 34,100 -480 Descending FlightAware
12:09AM 36.5680 -87.2550 240° Southwest 445 512 34,000 -120 Descending FlightAware
12:10AM 36.5360 -87.3270 241° Southwest 446 513 34,000  Level FlightAware
12:10AM 36.5000 -87.4080 241° Southwest 445 512 34,000  Level FlightAware
12:11AM 36.4650 -87.4860 241° Southwest 447 514 34,000  Level FlightAware
12:11AM 36.4280 -87.5670 240° Southwest 448 516 34,000  Level FlightAware
12:12AM 36.3910 -87.6470 240° Southwest 450 518 34,000  Level FlightAware
12:13AM 36.3580 -87.7190 240° Southwest 450 518 34,000 -120 Level FlightAware
12:13AM 36.3210 -87.8010 241° Southwest 449 517 33,900 -540 Descending FlightAware
12:14AM 36.2860 -87.8800 241° Southwest 439 505 33,400 -840 Descending FlightAware
12:14AM 36.2490 -87.9590 240° Southwest 438 504 32,900 -660 Descending FlightAware
12:15AM 36.2030 -88.0590 240° Southwest 437 503 32,500 -300 Descending FlightAware
12:16AM 36.1720 -88.1260 240° Southwest 437 503 32,500  Level FlightAware
12:16AM 36.1410 -88.1920 240° Southwest 437 503 32,500 -2,760 Level FlightAware
12:17AM 36.0950 -88.2950 241° Southwest 417 480 29,200 -2,640 Descending FlightAware
12:18AM 36.0620 -88.3650 240° Southwest 417 480 29,200  Level FlightAware
12:18AM 36.0320 -88.4280 240° Southwest 417 480 29,200  Level FlightAware
12:19AM 36.0030 -88.4910 240° Southwest 417 480 29,200  Level FlightAware
12:19AM 35.9730 -88.5540 240° Southwest 417 480 29,200  Level FlightAware
12:20AM 35.9420 -88.6210 240° Southwest 417 480 29,200  Level FlightAware
12:21AM 35.9120 -88.6860 240° Southwest 417 480 29,200 -3,360 Level FlightAware
12:21AM 35.8406 -88.8333 240° Southwest 416 479 24,600 -3,000 Descending Memphis Center
12:22AM 35.7817 -88.9547 239° Southwest 416 479 24,000 -1,200 Descending Memphis Center
12:23AM 35.7264 -89.0708 240° Southwest 410 472 22,300 -1,920 Descending Memphis Center
12:24AM 35.6525 -89.1717 228° Southwest 405 466 20,200 -2,160 Descending Memphis Center
12:25AM 35.5783 -89.2697 227° Southwest 398 458 18,000 -2,160 Descending Memphis Center
12:26AM 35.5039 -89.3625 225° Southwest 387 445 15,900 -1,620 Descending Memphis Center
12:27AM 35.4358 -89.4550 228° Southwest 377 434 14,800 -960 Descending Memphis Center
12:28AM 35.3697 -89.5372 225° Southwest 356 410 14,000 -720 Descending Memphis Center
12:29AM 35.3097 -89.6142 226° Southwest 322 371 13,400 -900 Descending Memphis Center
12:30AM 35.2517 -89.6883 226° Southwest 307 353 12,300 -960 Descending Memphis Center
12:31AM 35.1997 -89.7522 225° Southwest 301 346 11,500 -900 Descending Memphis Center
12:32AM 35.1522 -89.8136 227° Southwest 276 318 10,500 -1,200 Descending Memphis Center
12:33AM 35.1022 -89.8697 223° Southwest 257 296 9,200 -1,380 Descending Memphis Center
12:34AM 35.0314 -89.8678 179° South 233 268 7,800 -1,680 Descending Memphis Center
12:35AM 34.9647 -89.8681 180° South 238 274 5,900 -1,800 Descending Memphis Center
12:36AM 34.9019 -89.8683 180° South 231 266 4,200 -1,800 Descending Memphis Center
12:37AM 34.8458 -89.8739 185° South 226 260 2,400 -1,140 Descending Memphis Center
12:38AM 34.8647 -89.9192 297° West 127 146 2,000 -240 Descending Memphis Center
12:40AM 34.9167 -89.9500 334° Northwest 175 201 1,900 -240 Descending KMEM
12:41AM 34.9667 -89.9667 345° North 156 180 1,500 -540 Descending KMEM
12:42AM 35.0167 -89.9667 360° North 152 175 700 -720 Descending KMEM
12:44AM 35.0333 -89.9667 345° North  Level FlightAware Approximate